ドバイ の空港の天気 - METARとTAF

ドバイ国際空港 ( OMDB / DXB ) - アラブ首長国連邦 ドバイ
飛行場実況気象(Metar)
観測時間05/25 06:00 GST (05/25 02:00 UTC)
風向・風速南南東 4m/s
視程8000m
天気現象
なし
気温32℃
湿度28%
気圧1004hPa
METAROMDB 250200Z 16008KT 8000 NSC 32/11 Q1004 NOSIG
過去の天気等 Google飛行場航空写真 Wunderground天気予報

過去48時間のMETAR

飛行場予報(TAF)
発表時間: 5/25 02:59 GST (5/24 22:59 UTC)
予報対象時間: 25日4時 GST ~ 26日10時 GST
風向・風速東 3m/s
視程10km以上
なし
25日6時 GST ~ 25日8時 GST に徐々に
風向・風速南 6m/s
25日12時 GST ~ 25日14時 GST に徐々に
風向・風速北北西 7m/s
25日20時 GST ~ 25日22時 GST に徐々に
風向・風速北東 3m/s
26日6時 GST ~ 26日8時 GST に徐々に
風向・風速南 5m/s
TAF OMDB 242259Z 2500/2606 09005KT CAVOK
BECMG 2502/2504 18012KT
BECMG 2508/2510 33014KT
BECMG 2516/2518 05005KT
BECMG 2602/2604 17010KT